*** The Vicarage Weather Feed ***

Nearby METAR Reports


 

CYOO - Oshawa, Municipal Airport, Ontario, Canada
Distance from station: NW 3.2km
Updated: 25/01/2020 05:53
Light snow, Light, Overcast
Light snow, Light, Overcast
 Wind from E
Wind: E 28 km/h, Gust: 39 km/h
Temperature: 2°C
Wind Chill: -3°C
Dew Point: 1°C
Humidity: 93%
Barometer: 1013.9 hPa
Summary: Light snow, Light
Clouds: Overcast
Visibility: 10 km
Cloud details: Overcast 1676 m
2020/01/25 10:53 CYOO 251053Z AUTO 10015G21KT 6SM -SN -UP OVC055 02/01 A2994 RMK SLP145
CYKZ - Toronto, Buttonville, Municipal Airport, Ontario, Canada
Distance from station: W 39.75km
Updated: 03/01/2019 04:00
NOT Current
Partly cloudy
Partly cloudy
 Wind from WSW
Wind: WSW 7 km/h
Temperature: -3°C
Wind Chill: -6°C
Dew Point: -5°C
Humidity: 86%
Barometer: 1010.8 hPa
Clouds: Partly cloudy
Visibility: 24 km
Cloud details: Partly cloudy 1219 m
2019/01/03 09:00 CYKZ 030900Z 25004KT 15SM SCT040 M03/M05 A2985 RMK SC3 LAST STFD OBS FAREWELL SLP118
 
CXTO - Toronto City, Buttonville, Ontario, Canada
Distance from station: WSW 49km
Updated: 25/01/2020 05:00

 
Temperature: 3°C
Dew Point: 2°C
Humidity: 93%
2020/01/25 10:00 CXTO 251000Z AUTO 03/02 RMK AO1 5PAST HR SOG 05 8015 SLP137 P0006 T00340018 50050
CYTZ - Toronto City, Island Airport, Ontario, Canada
Distance from station: SW 51.7km
Updated: 25/01/2020 05:03
Light rain, Mist, Overcast
Light rain, Mist, Overcast
 Wind from ENE
Wind: ENE 43 km/h, Gust: 54 km/h
Temperature: 3°C
Wind Chill: -4°C
Dew Point: 2°C
Humidity: 93%
Barometer: 1012.9 hPa
Summary: Light rain, Mist
Clouds: Overcast
Visibility: 10 km
Cloud details: Mostly cloudy 853 m
Overcast 1067 m
2020/01/25 10:03 CYTZ 251003Z AUTO 07023G29KT 6SM -RA BR BKN028 OVC035 03/02 A2991 RMK PRESFR SLP132
 
CYPQ - Toronto, Peterborough Airport, Ontario, Canada
Distance from station: NE 54km
Updated: 25/01/2020 05:43
Light, Mist, Overcast
Light, Mist, Overcast
 Wind from E
Wind: E 13 km/h
Temperature: 2°C
Wind Chill: -1°C
Dew Point: 1°C
Humidity: 93%
Barometer: 1014.9 hPa
Summary: Light, Mist
Clouds: Overcast
Visibility: 6 km
Cloud details: Overcast 1433 m
2020/01/25 10:43 CYPQ 251043Z AUTO 10007KT 060V130 4SM -UP BR OVC047 02/01 A2997 RMK SLP157
CWNC - Cobourg, (mars), Ontario, Canada
Distance from station: E 57km
Updated: 25/01/2020 05:00

 Wind from E
Wind: E 20 km/h, Gust: 33 km/h
Temperature: 2°C
Wind Chill: -3°C
Dew Point: 0°C
Humidity: 87%
2020/01/25 10:00 CWNC 251000Z AUTO 09011G18KT 02/M00 RMK AO1 SOG 08 8015 PK WND 09018/0959 SLP162 T00191004
 
CYYZ - Toronto, Lester Pearson Airport, Ontario, Canada
Distance from station: W 65.5km
Updated: 25/01/2020 05:00
Light rain, Mist, Overcast
Light rain, Mist, Overcast
 Wind from E
Wind: E 28 km/h, Gust: 48 km/h
Temperature: 3°C
Wind Chill: -3°C
Dew Point: 3°C
Humidity: 100%
Barometer: 1012.2 hPa
Summary: Light rain, Mist
Clouds: Overcast
Visibility: 10 km
Cloud details: Partly cloudy 183 m
Overcast 610 m
2020/01/25 10:00 CYYZ 251000Z 09015G26KT 6SM -RA BR SCT006 OVC020 03/03 A2989 RMK CF4NS4 PRESFR SLP128
CWGL - Lagoon City, Ontario, Canada
Distance from station: NNW 74km
Updated: 25/01/2020 05:00

 Wind from ESE
Wind: ESE 26 km/h
Temperature: 2°C
Wind Chill: -3°C
Dew Point: 1°C
Humidity: 93%
2020/01/25 10:00 CWGL 251000Z AUTO 11014KT 02/01 RMK AO1 PK WND 12021/0913 SLP127 T00190007 56011
 
CWWZ - Port Weller Airport, Ontario, Canada
Distance from station: SSW 77km
Updated: 25/01/2020 05:00

 Wind from ENE
Wind: ENE 28 km/h
Temperature: 3°C
Wind Chill: -3°C
Dew Point: 2°C
Humidity: 93%
2020/01/25 10:00 CWWZ 251000Z AUTO 07015KT 03/02 RMK AO1 PK WND 07019/0943 SLP125 T00270022 58020
CYSN - St.Catharines Niagara Airport, Ontario, Canada
Distance from station: SSW 81km
Updated: 24/01/2020 21:00
NOT Current
Light rain, Overcast
Light rain, Overcast
 Wind from E
Wind: E 20 km/h
Temperature: 4°C
Wind Chill: -1°C
Dew Point: 4°C
Humidity: 100%
Barometer: 1015.6 hPa
Summary: Light rain
Clouds: Overcast
Visibility: 19 km
Cloud details: Partly cloudy 1737 m
Overcast 2225 m
2020/01/25 02:00 CYSN 250200Z 08011KT 12SM -RA SCT057 OVC073 04/04 A2999 RMK SC3AC5 LAST STFD OBS/NEXT 251200 UTC SLP159
This data is offered only as a general guide to local weather conditions. It should not be relied upon in lieu of officially disseminated weather information for determining possible risk to persons or property. This site, including all information contained therein, is made available as is without warranties of any kind, either express or implied. The Vicarage Weather Feed© includes links to other sites for user convenience only. The content of any linked third-party site is not controlled by The Vicarage Weather Feed©. Access to any third-party website through The Vicarage Weather Feed©, regardless of whether or not the third-party site is a linked site, is entirely at the users own risk. Externally sourced content or material is excluded from The Vicarage Weather Feed© copyright and is the copyright and property of the respective provider. Skywarn® and the Skywarn® logo are registered trademarks of the National Oceanic and Atmospheric Administration, used with permission.